Arcola, Illinois
Current Conditions -  °F | °C
As of 9:53 AM on Saturday 25 Oct 2014 (Local Time) from KMTO Reporting Station
Clear Clear  
Wind Chill: 63°   Ceiling: Unl
Heat Index: 63°   Visibility: 10mi
Dew Point: 58°   Wind: 8mph
Humidity: 84%   Direction: 300°WNW
Pressure: 30.01"   Gusts: NA
Location:  39.68°N, 88.31°W
Report Text: KMTO 251453Z AUTO 30007KT 10SM CLR 17/14 A3001 RMK AO2 SLP159 T01720144 51010
Loading
Personal Weather Stations






























Interactive Weather Map
Tropical Storm Tracking
New forecast layout! Learn more

10-Day Weather Forecast

Advertisements
Track Severe Weather on mobile